Date,TemperatureHighF,TemperatureAvgF,TemperatureLowF,DewpointHighF,DewpointAvgF,DewpointLowF,HumidityHigh,HumidityAvg,HumidityLow,PressureMaxIn,PressureMinIn,WindSpeedMaxMPH,WindSpeedAvgMPH,GustSpeedMaxMPH,PrecipitationSumIn
2012-12-1,38,34,29,36,32,28,98,95,91,0.00,40.00,10,6,20,0.33
2012-12-2,36,34,33,35,33,32,98,96,90,0.00,40.00,7,3,16,0.09
2012-12-3,52,43,34,51,41,30,99,93,66,0.00,40.00,10,8,23,0.05
2012-12-4,40,26,14,29,14,6,80,60,46,0.00,40.00,9,6,21,0.01
2012-12-5,31,20,7,15,11,3,85,68,51,0.00,40.00,10,5,24,0.00
2012-12-6,40,33,25,35,23,-100,92,73,52,0.00,40.00,11,7,24,0.01
2012-12-7,27,24,20,19,17,16,86,76,64,0.00,40.00,4,2,12,0.01
2012-12-8,32,22,16,19,16,13,91,82,54,0.00,40.00,3,1,6,0.00
2012-12-9,29,26,23,24,22,18,92,84,74,0.00,40.00,6,4,12,0.00
2012-12-10,25,20,16,23,16,13,93,85,79,0.00,40.00,5,3,8,0.00
2012-12-11,16,12,9,13,8,4,89,82,75,0.00,40.00,5,4,12,0.00
2012-12-12,35,20,-1,26,14,-6,84,76,68,0.00,40.00,8,4,16,0.00
2012-12-13,38,30,22,26,22,19,90,73,49,0.00,40.00,5,3,11,0.20
2012-12-14,36,26,21,26,22,19,93,86,65,0.00,40.00,8,4,16,0.01
2012-12-15,37,34,30,34,31,27,97,90,82,0.00,40.00,8,6,19,0.18
2012-12-16,34,30,21,32,29,19,98,95,89,0.00,40.00,6,3,13,0.18
2012-12-17,23,21,20,19,17,16,91,85,77,0.00,40.00,6,3,12,0.01
2012-12-18,30,21,10,21,17,7,88,83,68,0.00,40.00,4,2,9,0.00
2012-12-19,29,22,10,25,20,7,93,88,80,0.00,40.00,5,3,12,0.00
2012-12-20,26,24,19,24,22,16,91,89,86,0.00,40.00,11,6,25,0.00
2012-12-21,23,12,1,14,7,-5,85,79,62,0.00,40.00,10,5,21,0.00
2012-12-22,28,9,-7,14,2,-13,86,73,49,0.00,40.00,8,2,19,0.03
2012-12-23,21,14,9,10,7,4,84,74,51,0.00,40.00,6,4,16,0.01
2012-12-24,17,10,1,8,3,-4,83,73,50,0.00,40.00,7,3,13,0.00
2012-12-25,16,3,-7,5,-4,-13,80,74,54,0.00,40.00,5,2,10,0.00
2012-12-26,19,2,-9,9,-5,-16,81,73,62,0.00,40.00,3,1,6,0.00
2012-12-27,23,13,-7,15,6,-13,83,76,61,0.00,40.00,4,1,9,0.00
2012-12-28,24,16,9,14,10,5,88,80,59,0.00,40.00,5,1,13,0.00
2012-12-29,20,15,5,15,10,1,88,81,72,0.00,40.00,5,2,11,0.00
2012-12-30,22,12,-1,10,5,-6,82,72,52,0.00,40.00,7,4,15,0.00
2012-12-31,16,6,-9,11,-2,-16,86,69,49,0.00,40.00,7,4,19,0.00